sensor_id;sensor_type;location;lat;lon;timestamp;P1;durP1;ratioP1;P2;durP2;ratioP2
22030;SDS011;11179;52.106;21.024;2023-07-22T00:01:36;11.17;;;7.30;;
22030;SDS011;11179;52.106;21.024;2023-07-22T00:04:02;10.10;;;6.40;;
22030;SDS011;11179;52.106;21.024;2023-07-22T00:06:28;8.70;;;5.90;;
22030;SDS011;11179;52.106;21.024;2023-07-22T00:08:53;11.70;;;6.50;;
22030;SDS011;11179;52.106;21.024;2023-07-22T00:11:18;18.00;;;8.00;;
22030;SDS011;11179;52.106;21.024;2023-07-22T00:13:45;10.60;;;6.37;;
22030;SDS011;11179;52.106;21.024;2023-07-22T00:16:10;12.07;;;6.40;;
22030;SDS011;11179;52.106;21.024;2023-07-22T00:18:36;9.90;;;6.50;;
22030;SDS011;11179;52.106;21.024;2023-07-22T00:21:01;10.80;;;7.00;;
22030;SDS011;11179;52.106;21.024;2023-07-22T00:23:26;12.67;;;7.03;;
22030;SDS011;11179;52.106;21.024;2023-07-22T00:25:52;14.80;;;7.70;;
22030;SDS011;11179;52.106;21.024;2023-07-22T00:28:17;12.10;;;7.00;;
22030;SDS011;11179;52.106;21.024;2023-07-22T00:30:43;15.33;;;8.00;;
22030;SDS011;11179;52.106;21.024;2023-07-22T00:33:09;12.87;;;7.50;;
22030;SDS011;11179;52.106;21.024;2023-07-22T00:35:34;11.90;;;6.80;;
22030;SDS011;11179;52.106;21.024;2023-07-22T00:38:00;12.00;;;7.77;;
22030;SDS011;11179;52.106;21.024;2023-07-22T00:40:27;13.67;;;7.10;;
22030;SDS011;11179;52.106;21.024;2023-07-22T00:42:52;11.23;;;7.07;;
22030;SDS011;11179;52.106;21.024;2023-07-22T00:45:18;11.97;;;6.77;;
22030;SDS011;11179;52.106;21.024;2023-07-22T00:47:44;12.80;;;8.07;;
22030;SDS011;11179;52.106;21.024;2023-07-22T00:50:10;13.33;;;7.50;;
22030;SDS011;11179;52.106;21.024;2023-07-22T00:52:35;12.03;;;7.10;;
22030;SDS011;11179;52.106;21.024;2023-07-22T00:55:01;11.23;;;7.60;;
22030;SDS011;11179;52.106;21.024;2023-07-22T00:57:28;10.80;;;6.63;;
22030;SDS011;11179;52.106;21.024;2023-07-22T00:59:54;11.77;;;7.47;;
22030;SDS011;11179;52.106;21.024;2023-07-22T01:02:19;12.03;;;7.83;;
22030;SDS011;11179;52.106;21.024;2023-07-22T01:04:45;14.70;;;7.97;;
22030;SDS011;11179;52.106;21.024;2023-07-22T01:07:11;14.27;;;8.33;;
22030;SDS011;11179;52.106;21.024;2023-07-22T01:09:38;10.90;;;7.20;;
22030;SDS011;11179;52.106;21.024;2023-07-22T01:12:04;10.53;;;6.80;;
22030;SDS011;11179;52.106;21.024;2023-07-22T01:14:32;14.03;;;8.20;;
22030;SDS011;11179;52.106;21.024;2023-07-22T01:16:59;12.20;;;7.87;;
22030;SDS011;11179;52.106;21.024;2023-07-22T01:19:26;12.20;;;7.97;;
22030;SDS011;11179;52.106;21.024;2023-07-22T01:21:53;11.33;;;7.30;;
22030;SDS011;11179;52.106;21.024;2023-07-22T01:24:19;13.47;;;8.13;;
22030;SDS011;11179;52.106;21.024;2023-07-22T01:26:44;21.07;;;9.00;;
22030;SDS011;11179;52.106;21.024;2023-07-22T01:29:09;14.10;;;9.03;;
22030;SDS011;11179;52.106;21.024;2023-07-22T01:31:35;15.80;;;8.50;;
22030;SDS011;11179;52.106;21.024;2023-07-22T01:34:03;42.67;;;8.90;;
22030;SDS011;11179;52.106;21.024;2023-07-22T01:36:29;12.30;;;8.00;;
22030;SDS011;11179;52.106;21.024;2023-07-22T01:38:54;14.03;;;8.47;;
22030;SDS011;11179;52.106;21.024;2023-07-22T01:41:19;14.17;;;8.47;;
22030;SDS011;11179;52.106;21.024;2023-07-22T01:43:45;13.80;;;8.43;;
22030;SDS011;11179;52.106;21.024;2023-07-22T01:46:10;12.13;;;8.00;;
22030;SDS011;11179;52.106;21.024;2023-07-22T01:48:35;12.97;;;8.03;;
22030;SDS011;11179;52.106;21.024;2023-07-22T01:51:01;16.03;;;9.27;;
22030;SDS011;11179;52.106;21.024;2023-07-22T01:53:27;14.53;;;8.60;;
22030;SDS011;11179;52.106;21.024;2023-07-22T01:55:52;16.87;;;8.87;;
22030;SDS011;11179;52.106;21.024;2023-07-22T01:58:18;17.97;;;8.87;;
22030;SDS011;11179;52.106;21.024;2023-07-22T02:00:43;13.43;;;8.40;;
22030;SDS011;11179;52.106;21.024;2023-07-22T02:03:08;14.10;;;8.70;;
22030;SDS011;11179;52.106;21.024;2023-07-22T02:05:33;14.03;;;9.77;;
22030;SDS011;11179;52.106;21.024;2023-07-22T02:07:59;15.83;;;9.40;;
22030;SDS011;11179;52.106;21.024;2023-07-22T02:10:24;16.30;;;9.97;;
22030;SDS011;11179;52.106;21.024;2023-07-22T02:12:50;15.57;;;10.23;;
22030;SDS011;11179;52.106;21.024;2023-07-22T02:15:15;19.70;;;10.50;;
22030;SDS011;11179;52.106;21.024;2023-07-22T02:17:44;17.43;;;9.13;;
22030;SDS011;11179;52.106;21.024;2023-07-22T02:20:09;13.70;;;9.50;;
22030;SDS011;11179;52.106;21.024;2023-07-22T02:22:34;16.33;;;10.00;;
22030;SDS011;11179;52.106;21.024;2023-07-22T02:24:59;16.23;;;9.70;;
22030;SDS011;11179;52.106;21.024;2023-07-22T02:27:25;14.00;;;9.03;;
22030;SDS011;11179;52.106;21.024;2023-07-22T02:29:50;14.03;;;9.83;;
22030;SDS011;11179;52.106;21.024;2023-07-22T02:32:17;17.60;;;10.60;;
22030;SDS011;11179;52.106;21.024;2023-07-22T02:34:42;16.43;;;9.73;;
22030;SDS011;11179;52.106;21.024;2023-07-22T02:37:07;14.10;;;9.67;;
22030;SDS011;11179;52.106;21.024;2023-07-22T02:39:32;15.40;;;9.33;;
22030;SDS011;11179;52.106;21.024;2023-07-22T02:41:58;13.80;;;9.10;;
22030;SDS011;11179;52.106;21.024;2023-07-22T02:44:23;15.90;;;10.93;;
22030;SDS011;11179;52.106;21.024;2023-07-22T02:46:48;16.87;;;9.93;;
22030;SDS011;11179;52.106;21.024;2023-07-22T02:49:13;16.07;;;11.03;;
22030;SDS011;11179;52.106;21.024;2023-07-22T02:51:39;17.90;;;11.20;;
22030;SDS011;11179;52.106;21.024;2023-07-22T02:54:04;18.00;;;10.63;;
22030;SDS011;11179;52.106;21.024;2023-07-22T02:56:29;19.13;;;12.50;;
22030;SDS011;11179;52.106;21.024;2023-07-22T02:58:55;19.00;;;11.93;;
22030;SDS011;11179;52.106;21.024;2023-07-22T03:01:20;22.93;;;13.40;;
22030;SDS011;11179;52.106;21.024;2023-07-22T03:03:45;17.53;;;11.27;;
22030;SDS011;11179;52.106;21.024;2023-07-22T03:06:11;18.80;;;12.03;;
22030;SDS011;11179;52.106;21.024;2023-07-22T03:08:36;18.80;;;11.30;;
22030;SDS011;11179;52.106;21.024;2023-07-22T03:11:01;17.73;;;11.77;;
22030;SDS011;11179;52.106;21.024;2023-07-22T03:13:28;21.90;;;10.27;;
22030;SDS011;11179;52.106;21.024;2023-07-22T03:15:54;18.83;;;10.93;;
22030;SDS011;11179;52.106;21.024;2023-07-22T03:18:20;14.90;;;10.20;;
22030;SDS011;11179;52.106;21.024;2023-07-22T03:20:46;17.23;;;10.33;;
22030;SDS011;11179;52.106;21.024;2023-07-22T03:23:11;19.87;;;11.77;;
22030;SDS011;11179;52.106;21.024;2023-07-22T03:25:36;18.33;;;10.00;;
22030;SDS011;11179;52.106;21.024;2023-07-22T03:28:02;19.87;;;12.17;;
22030;SDS011;11179;52.106;21.024;2023-07-22T03:30:29;15.80;;;9.40;;
22030;SDS011;11179;52.106;21.024;2023-07-22T03:32:54;17.30;;;10.17;;
22030;SDS011;11179;52.106;21.024;2023-07-22T03:35:20;17.70;;;9.90;;
22030;SDS011;11179;52.106;21.024;2023-07-22T03:37:45;19.77;;;10.50;;
22030;SDS011;11179;52.106;21.024;2023-07-22T03:40:11;18.30;;;10.40;;
22030;SDS011;11179;52.106;21.024;2023-07-22T03:42:48;22.57;;;12.00;;
22030;SDS011;11179;52.106;21.024;2023-07-22T03:45:15;15.57;;;10.67;;
22030;SDS011;11179;52.106;21.024;2023-07-22T03:47:43;15.23;;;10.50;;
22030;SDS011;11179;52.106;21.024;2023-07-22T03:50:09;18.50;;;11.30;;
22030;SDS011;11179;52.106;21.024;2023-07-22T03:52:35;21.07;;;11.10;;
22030;SDS011;11179;52.106;21.024;2023-07-22T03:55:00;15.83;;;9.70;;
22030;SDS011;11179;52.106;21.024;2023-07-22T03:57:26;18.50;;;10.53;;
22030;SDS011;11179;52.106;21.024;2023-07-22T03:59:53;17.80;;;11.23;;
22030;SDS011;11179;52.106;21.024;2023-07-22T04:02:19;17.73;;;9.87;;
22030;SDS011;11179;52.106;21.024;2023-07-22T04:04:44;21.90;;;10.23;;
22030;SDS011;11179;52.106;21.024;2023-07-22T04:07:10;15.57;;;11.17;;
22030;SDS011;11179;52.106;21.024;2023-07-22T04:09:35;15.97;;;9.60;;
22030;SDS011;11179;52.106;21.024;2023-07-22T04:12:01;19.00;;;11.27;;
22030;SDS011;11179;52.106;21.024;2023-07-22T04:14:26;15.33;;;9.97;;
22030;SDS011;11179;52.106;21.024;2023-07-22T04:16:51;19.87;;;10.20;;
22030;SDS011;11179;52.106;21.024;2023-07-22T04:19:17;17.50;;;10.63;;
22030;SDS011;11179;52.106;21.024;2023-07-22T04:21:42;18.23;;;9.83;;
22030;SDS011;11179;52.106;21.024;2023-07-22T04:24:08;17.70;;;10.50;;
22030;SDS011;11179;52.106;21.024;2023-07-22T04:26:33;18.20;;;11.17;;
22030;SDS011;11179;52.106;21.024;2023-07-22T04:28:59;15.80;;;10.30;;
22030;SDS011;11179;52.106;21.024;2023-07-22T04:31:24;14.70;;;9.77;;
22030;SDS011;11179;52.106;21.024;2023-07-22T04:33:50;13.23;;;8.47;;
22030;SDS011;11179;52.106;21.024;2023-07-22T04:36:15;20.40;;;9.60;;
22030;SDS011;11179;52.106;21.024;2023-07-22T04:38:40;12.67;;;8.30;;
22030;SDS011;11179;52.106;21.024;2023-07-22T04:41:06;14.33;;;8.60;;
22030;SDS011;11179;52.106;21.024;2023-07-22T04:43:31;14.30;;;8.20;;
22030;SDS011;11179;52.106;21.024;2023-07-22T04:45:57;13.10;;;8.07;;
22030;SDS011;11179;52.106;21.024;2023-07-22T04:48:22;13.30;;;8.53;;
22030;SDS011;11179;52.106;21.024;2023-07-22T04:50:48;15.40;;;9.07;;
22030;SDS011;11179;52.106;21.024;2023-07-22T04:53:14;14.90;;;7.43;;
22030;SDS011;11179;52.106;21.024;2023-07-22T04:55:41;10.50;;;6.40;;
22030;SDS011;11179;52.106;21.024;2023-07-22T04:58:06;13.10;;;8.13;;
22030;SDS011;11179;52.106;21.024;2023-07-22T05:00:33;14.70;;;7.23;;
22030;SDS011;11179;52.106;21.024;2023-07-22T05:02:58;12.70;;;7.30;;
22030;SDS011;11179;52.106;21.024;2023-07-22T05:05:24;13.00;;;7.57;;
22030;SDS011;11179;52.106;21.024;2023-07-22T05:07:50;10.43;;;7.27;;
22030;SDS011;11179;52.106;21.024;2023-07-22T05:10:15;14.30;;;7.53;;
22030;SDS011;11179;52.106;21.024;2023-07-22T05:12:41;12.97;;;7.30;;
22030;SDS011;11179;52.106;21.024;2023-07-22T05:15:07;15.90;;;7.93;;
22030;SDS011;11179;52.106;21.024;2023-07-22T05:17:34;13.73;;;7.33;;
22030;SDS011;11179;52.106;21.024;2023-07-22T05:20:00;13.20;;;8.40;;
22030;SDS011;11179;52.106;21.024;2023-07-22T05:22:25;12.00;;;7.17;;
22030;SDS011;11179;52.106;21.024;2023-07-22T05:24:50;12.10;;;7.20;;
22030;SDS011;11179;52.106;21.024;2023-07-22T05:27:16;17.20;;;7.50;;
22030;SDS011;11179;52.106;21.024;2023-07-22T05:29:42;11.60;;;6.80;;
22030;SDS011;11179;52.106;21.024;2023-07-22T05:32:07;13.80;;;7.30;;
22030;SDS011;11179;52.106;21.024;2023-07-22T05:34:33;24.40;;;7.70;;
22030;SDS011;11179;52.106;21.024;2023-07-22T05:36:58;12.50;;;7.20;;
22030;SDS011;11179;52.106;21.024;2023-07-22T05:39:24;14.70;;;7.33;;
22030;SDS011;11179;52.106;21.024;2023-07-22T05:41:50;15.33;;;7.57;;
22030;SDS011;11179;52.106;21.024;2023-07-22T05:44:15;14.73;;;8.07;;
22030;SDS011;11179;52.106;21.024;2023-07-22T05:46:41;13.37;;;7.97;;
22030;SDS011;11179;52.106;21.024;2023-07-22T05:49:06;14.80;;;7.63;;
22030;SDS011;11179;52.106;21.024;2023-07-22T05:51:32;16.63;;;8.13;;
22030;SDS011;11179;52.106;21.024;2023-07-22T05:53:57;24.20;;;7.00;;
22030;SDS011;11179;52.106;21.024;2023-07-22T05:56:22;18.73;;;7.30;;
22030;SDS011;11179;52.106;21.024;2023-07-22T05:58:48;10.23;;;5.97;;
22030;SDS011;11179;52.106;21.024;2023-07-22T06:01:13;10.37;;;6.10;;
22030;SDS011;11179;52.106;21.024;2023-07-22T06:03:39;12.00;;;6.30;;
22030;SDS011;11179;52.106;21.024;2023-07-22T06:06:05;13.50;;;7.10;;
22030;SDS011;11179;52.106;21.024;2023-07-22T06:08:30;14.70;;;5.93;;
22030;SDS011;11179;52.106;21.024;2023-07-22T06:10:56;11.30;;;5.53;;
22030;SDS011;11179;52.106;21.024;2023-07-22T06:13:21;10.47;;;5.80;;
22030;SDS011;11179;52.106;21.024;2023-07-22T06:15:47;17.30;;;5.40;;
22030;SDS011;11179;52.106;21.024;2023-07-22T06:18:12;9.47;;;4.97;;
22030;SDS011;11179;52.106;21.024;2023-07-22T06:20:38;8.90;;;4.97;;
22030;SDS011;11179;52.106;21.024;2023-07-22T06:23:03;10.70;;;5.43;;
22030;SDS011;11179;52.106;21.024;2023-07-22T06:25:29;11.80;;;5.43;;
22030;SDS011;11179;52.106;21.024;2023-07-22T06:27:54;10.53;;;4.97;;
22030;SDS011;11179;52.106;21.024;2023-07-22T06:30:19;12.50;;;5.07;;
22030;SDS011;11179;52.106;21.024;2023-07-22T06:32:45;7.30;;;4.20;;
22030;SDS011;11179;52.106;21.024;2023-07-22T06:35:11;9.10;;;5.30;;
22030;SDS011;11179;52.106;21.024;2023-07-22T06:37:36;9.37;;;5.37;;
22030;SDS011;11179;52.106;21.024;2023-07-22T06:40:02;9.43;;;4.57;;
22030;SDS011;11179;52.106;21.024;2023-07-22T06:42:28;9.13;;;4.80;;
22030;SDS011;11179;52.106;21.024;2023-07-22T06:44:54;9.80;;;4.60;;
22030;SDS011;11179;52.106;21.024;2023-07-22T06:47:20;7.70;;;4.53;;
22030;SDS011;11179;52.106;21.024;2023-07-22T06:49:45;10.80;;;4.40;;
22030;SDS011;11179;52.106;21.024;2023-07-22T06:52:11;8.03;;;4.27;;
22030;SDS011;11179;52.106;21.024;2023-07-22T06:54:36;8.87;;;4.13;;
22030;SDS011;11179;52.106;21.024;2023-07-22T06:57:01;9.57;;;3.93;;
22030;SDS011;11179;52.106;21.024;2023-07-22T06:59:27;8.63;;;4.10;;
22030;SDS011;11179;52.106;21.024;2023-07-22T07:01:52;7.40;;;3.90;;
22030;SDS011;11179;52.106;21.024;2023-07-22T07:04:18;9.73;;;4.17;;
22030;SDS011;11179;52.106;21.024;2023-07-22T07:06:43;7.70;;;3.30;;
22030;SDS011;11179;52.106;21.024;2023-07-22T07:09:10;8.53;;;3.80;;
22030;SDS011;11179;52.106;21.024;2023-07-22T07:11:35;7.43;;;3.57;;
22030;SDS011;11179;52.106;21.024;2023-07-22T07:14:01;6.50;;;3.07;;
22030;SDS011;11179;52.106;21.024;2023-07-22T07:16:28;6.90;;;3.23;;
22030;SDS011;11179;52.106;21.024;2023-07-22T07:18:56;8.03;;;3.30;;
22030;SDS011;11179;52.106;21.024;2023-07-22T07:21:22;5.90;;;3.20;;
22030;SDS011;11179;52.106;21.024;2023-07-22T07:23:48;9.80;;;3.50;;
22030;SDS011;11179;52.106;21.024;2023-07-22T07:26:14;6.70;;;3.30;;
22030;SDS011;11179;52.106;21.024;2023-07-22T07:28:40;6.70;;;3.60;;
22030;SDS011;11179;52.106;21.024;2023-07-22T07:31:06;8.57;;;3.17;;
22030;SDS011;11179;52.106;21.024;2023-07-22T07:33:31;5.40;;;2.50;;
22030;SDS011;11179;52.106;21.024;2023-07-22T07:35:57;5.47;;;2.50;;
22030;SDS011;11179;52.106;21.024;2023-07-22T07:38:22;6.17;;;2.90;;
22030;SDS011;11179;52.106;21.024;2023-07-22T07:40:51;6.10;;;2.80;;
22030;SDS011;11179;52.106;21.024;2023-07-22T07:43:18;6.53;;;2.50;;
22030;SDS011;11179;52.106;21.024;2023-07-22T07:45:44;6.87;;;2.80;;
22030;SDS011;11179;52.106;21.024;2023-07-22T07:48:09;6.60;;;2.97;;
22030;SDS011;11179;52.106;21.024;2023-07-22T07:50:35;5.50;;;2.60;;
22030;SDS011;11179;52.106;21.024;2023-07-22T07:53:00;6.47;;;2.60;;
22030;SDS011;11179;52.106;21.024;2023-07-22T07:55:25;5.90;;;2.60;;
22030;SDS011;11179;52.106;21.024;2023-07-22T07:57:51;9.13;;;3.10;;
22030;SDS011;11179;52.106;21.024;2023-07-22T08:00:16;6.73;;;2.53;;
22030;SDS011;11179;52.106;21.024;2023-07-22T08:02:42;10.37;;;2.57;;
22030;SDS011;11179;52.106;21.024;2023-07-22T08:05:07;6.77;;;2.90;;
22030;SDS011;11179;52.106;21.024;2023-07-22T08:07:33;5.97;;;2.60;;
22030;SDS011;11179;52.106;21.024;2023-07-22T08:09:58;9.33;;;2.57;;
22030;SDS011;11179;52.106;21.024;2023-07-22T08:12:24;6.27;;;2.60;;
22030;SDS011;11179;52.106;21.024;2023-07-22T08:14:49;7.40;;;2.73;;
22030;SDS011;11179;52.106;21.024;2023-07-22T08:17:16;6.80;;;2.80;;
22030;SDS011;11179;52.106;21.024;2023-07-22T08:19:42;6.67;;;2.67;;
22030;SDS011;11179;52.106;21.024;2023-07-22T08:22:07;6.33;;;2.30;;
22030;SDS011;11179;52.106;21.024;2023-07-22T08:24:32;8.73;;;2.50;;
22030;SDS011;11179;52.106;21.024;2023-07-22T08:26:58;9.53;;;2.27;;
22030;SDS011;11179;52.106;21.024;2023-07-22T08:29:23;6.73;;;2.97;;
22030;SDS011;11179;52.106;21.024;2023-07-22T08:31:49;8.10;;;2.47;;
22030;SDS011;11179;52.106;21.024;2023-07-22T08:34:14;9.00;;;2.40;;
22030;SDS011;11179;52.106;21.024;2023-07-22T08:36:40;14.00;;;2.97;;
22030;SDS011;11179;52.106;21.024;2023-07-22T08:39:06;5.80;;;2.43;;
22030;SDS011;11179;52.106;21.024;2023-07-22T08:41:32;7.23;;;2.23;;
22030;SDS011;11179;52.106;21.024;2023-07-22T08:43:58;5.50;;;2.30;;
22030;SDS011;11179;52.106;21.024;2023-07-22T08:46:27;6.17;;;2.50;;
22030;SDS011;11179;52.106;21.024;2023-07-22T08:48:57;6.87;;;2.10;;
22030;SDS011;11179;52.106;21.024;2023-07-22T08:51:25;6.47;;;2.33;;
22030;SDS011;11179;52.106;21.024;2023-07-22T08:53:53;7.33;;;2.63;;
22030;SDS011;11179;52.106;21.024;2023-07-22T08:56:22;6.93;;;2.93;;
22030;SDS011;11179;52.106;21.024;2023-07-22T08:58:51;6.20;;;2.20;;
22030;SDS011;11179;52.106;21.024;2023-07-22T09:01:17;8.67;;;2.40;;
22030;SDS011;11179;52.106;21.024;2023-07-22T09:03:43;5.10;;;2.50;;
22030;SDS011;11179;52.106;21.024;2023-07-22T09:06:09;5.77;;;2.50;;
22030;SDS011;11179;52.106;21.024;2023-07-22T09:08:36;7.63;;;2.90;;
22030;SDS011;11179;52.106;21.024;2023-07-22T09:11:01;6.70;;;2.70;;
22030;SDS011;11179;52.106;21.024;2023-07-22T09:13:27;6.93;;;2.27;;
22030;SDS011;11179;52.106;21.024;2023-07-22T09:15:53;6.63;;;2.20;;
22030;SDS011;11179;52.106;21.024;2023-07-22T09:18:21;5.70;;;2.30;;
22030;SDS011;11179;52.106;21.024;2023-07-22T09:20:46;9.60;;;2.60;;
22030;SDS011;11179;52.106;21.024;2023-07-22T09:23:12;6.77;;;2.40;;
22030;SDS011;11179;52.106;21.024;2023-07-22T09:25:38;6.80;;;2.27;;
22030;SDS011;11179;52.106;21.024;2023-07-22T09:28:04;10.53;;;2.97;;
22030;SDS011;11179;52.106;21.024;2023-07-22T09:30:30;6.00;;;2.30;;
22030;SDS011;11179;52.106;21.024;2023-07-22T09:33:00;8.10;;;2.50;;
22030;SDS011;11179;52.106;21.024;2023-07-22T09:38:10;12.93;;;2.80;;
22030;SDS011;11179;52.106;21.024;2023-07-22T09:40:36;5.33;;;2.33;;
22030;SDS011;11179;52.106;21.024;2023-07-22T09:43:05;16.63;;;2.83;;
22030;SDS011;11179;52.106;21.024;2023-07-22T09:45:31;5.97;;;2.43;;
22030;SDS011;11179;52.106;21.024;2023-07-22T09:47:57;5.17;;;2.43;;
22030;SDS011;11179;52.106;21.024;2023-07-22T09:50:24;10.63;;;2.50;;
22030;SDS011;11179;52.106;21.024;2023-07-22T09:52:52;7.37;;;3.20;;
22030;SDS011;11179;52.106;21.024;2023-07-22T09:55:19;9.80;;;4.60;;
22030;SDS011;11179;52.106;21.024;2023-07-22T09:57:56;9.07;;;2.90;;
22030;SDS011;11179;52.106;21.024;2023-07-22T10:00:35;14.73;;;4.10;;
22030;SDS011;11179;52.106;21.024;2023-07-22T10:03:02;52.97;;;13.20;;
22030;SDS011;11179;52.106;21.024;2023-07-22T10:05:33;7.53;;;2.60;;
22030;SDS011;11179;52.106;21.024;2023-07-22T10:29:55;5.53;;;2.17;;
22030;SDS011;11179;52.106;21.024;2023-07-22T10:32:21;5.33;;;2.10;;
22030;SDS011;11179;52.106;21.024;2023-07-22T10:34:46;6.33;;;2.07;;
22030;SDS011;11179;52.106;21.024;2023-07-22T10:37:11;5.93;;;2.20;;
22030;SDS011;11179;52.106;21.024;2023-07-22T10:39:37;5.90;;;2.10;;
22030;SDS011;11179;52.106;21.024;2023-07-22T10:42:05;7.93;;;2.17;;
22030;SDS011;11179;52.106;21.024;2023-07-22T10:44:32;4.60;;;1.50;;
22030;SDS011;11179;52.106;21.024;2023-07-22T10:47:00;4.53;;;1.73;;
22030;SDS011;11179;52.106;21.024;2023-07-22T10:49:28;7.57;;;2.43;;
22030;SDS011;11179;52.106;21.024;2023-07-22T10:52:09;4.70;;;1.80;;
22030;SDS011;11179;52.106;21.024;2023-07-22T10:54:37;8.37;;;2.60;;
22030;SDS011;11179;52.106;21.024;2023-07-22T10:57:03;4.97;;;2.20;;
22030;SDS011;11179;52.106;21.024;2023-07-22T10:59:41;6.60;;;2.90;;
22030;SDS011;11179;52.106;21.024;2023-07-22T11:02:22;6.20;;;2.10;;
22030;SDS011;11179;52.106;21.024;2023-07-22T11:04:51;14.03;;;3.93;;
22030;SDS011;11179;52.106;21.024;2023-07-22T11:07:29;8.93;;;2.90;;
22030;SDS011;11179;52.106;21.024;2023-07-22T11:09:55;16.27;;;4.00;;
22030;SDS011;11179;52.106;21.024;2023-07-22T11:12:21;8.90;;;3.00;;
22030;SDS011;11179;52.106;21.024;2023-07-22T11:14:50;33.67;;;7.97;;
22030;SDS011;11179;52.106;21.024;2023-07-22T11:17:17;33.40;;;10.87;;
22030;SDS011;11179;52.106;21.024;2023-07-22T11:19:52;5.23;;;2.00;;
22030;SDS011;11179;52.106;21.024;2023-07-22T11:22:17;10.53;;;2.30;;
22030;SDS011;11179;52.106;21.024;2023-07-22T11:24:42;5.23;;;1.80;;
22030;SDS011;11179;52.106;21.024;2023-07-22T11:27:08;5.57;;;1.57;;
22030;SDS011;11179;52.106;21.024;2023-07-22T11:29:34;4.67;;;1.90;;
22030;SDS011;11179;52.106;21.024;2023-07-22T11:32:01;29.33;;;5.53;;
22030;SDS011;11179;52.106;21.024;2023-07-22T11:34:27;16.70;;;3.70;;
22030;SDS011;11179;52.106;21.024;2023-07-22T11:36:52;12.60;;;4.43;;
22030;SDS011;11179;52.106;21.024;2023-07-22T11:39:20;27.17;;;7.73;;
22030;SDS011;11179;52.106;21.024;2023-07-22T11:41:46;4.77;;;1.90;;
22030;SDS011;11179;52.106;21.024;2023-07-22T11:44:14;5.37;;;2.40;;
22030;SDS011;11179;52.106;21.024;2023-07-22T11:49:26;21.17;;;5.20;;
22030;SDS011;11179;52.106;21.024;2023-07-22T11:51:58;9.00;;;3.13;;
22030;SDS011;11179;52.106;21.024;2023-07-22T11:54:28;11.33;;;3.00;;
22030;SDS011;11179;52.106;21.024;2023-07-22T11:56:55;11.20;;;2.60;;
22030;SDS011;11179;52.106;21.024;2023-07-22T11:59:34;7.23;;;2.73;;
22030;SDS011;11179;52.106;21.024;2023-07-22T12:01:59;7.53;;;2.10;;
22030;SDS011;11179;52.106;21.024;2023-07-22T12:04:26;6.13;;;2.10;;
22030;SDS011;11179;52.106;21.024;2023-07-22T12:06:52;7.00;;;2.20;;
22030;SDS011;11179;52.106;21.024;2023-07-22T12:09:17;4.87;;;2.13;;
22030;SDS011;11179;52.106;21.024;2023-07-22T12:11:42;5.47;;;2.17;;
22030;SDS011;11179;52.106;21.024;2023-07-22T12:14:08;4.63;;;2.03;;
22030;SDS011;11179;52.106;21.024;2023-07-22T12:16:36;6.50;;;2.60;;
22030;SDS011;11179;52.106;21.024;2023-07-22T12:19:02;5.63;;;1.83;;
22030;SDS011;11179;52.106;21.024;2023-07-22T12:21:28;6.77;;;2.40;;
22030;SDS011;11179;52.106;21.024;2023-07-22T12:23:53;5.70;;;2.33;;
22030;SDS011;11179;52.106;21.024;2023-07-22T12:26:19;6.50;;;2.37;;
22030;SDS011;11179;52.106;21.024;2023-07-22T12:28:45;5.07;;;2.20;;
22030;SDS011;11179;52.106;21.024;2023-07-22T12:31:10;5.73;;;2.50;;
22030;SDS011;11179;52.106;21.024;2023-07-22T12:33:35;6.13;;;2.50;;
22030;SDS011;11179;52.106;21.024;2023-07-22T12:36:01;6.37;;;2.90;;
22030;SDS011;11179;52.106;21.024;2023-07-22T12:38:26;6.87;;;2.20;;
22030;SDS011;11179;52.106;21.024;2023-07-22T12:40:51;5.50;;;2.47;;
22030;SDS011;11179;52.106;21.024;2023-07-22T12:43:17;9.90;;;2.17;;
22030;SDS011;11179;52.106;21.024;2023-07-22T12:45:42;4.80;;;2.10;;
22030;SDS011;11179;52.106;21.024;2023-07-22T12:48:08;5.53;;;2.10;;
22030;SDS011;11179;52.106;21.024;2023-07-22T12:50:34;5.07;;;2.20;;
22030;SDS011;11179;52.106;21.024;2023-07-22T12:52:59;5.37;;;2.00;;
22030;SDS011;11179;52.106;21.024;2023-07-22T12:55:25;26.90;;;6.23;;
22030;SDS011;11179;52.106;21.024;2023-07-22T12:57:51;21.70;;;4.67;;
22030;SDS011;11179;52.106;21.024;2023-07-22T13:00:16;14.07;;;4.70;;
22030;SDS011;11179;52.106;21.024;2023-07-22T13:02:41;9.63;;;2.27;;
22030;SDS011;11179;52.106;21.024;2023-07-22T13:05:07;16.83;;;3.27;;
22030;SDS011;11179;52.106;21.024;2023-07-22T13:07:32;13.50;;;3.57;;
22030;SDS011;11179;52.106;21.024;2023-07-22T13:09:58;8.27;;;3.10;;
22030;SDS011;11179;52.106;21.024;2023-07-22T13:12:25;18.03;;;5.37;;
22030;SDS011;11179;52.106;21.024;2023-07-22T13:14:51;9.27;;;3.33;;
22030;SDS011;11179;52.106;21.024;2023-07-22T13:17:16;8.57;;;2.80;;
22030;SDS011;11179;52.106;21.024;2023-07-22T13:19:42;29.20;;;9.17;;
22030;SDS011;11179;52.106;21.024;2023-07-22T13:22:07;7.60;;;2.10;;
22030;SDS011;11179;52.106;21.024;2023-07-22T13:24:32;5.70;;;2.07;;
22030;SDS011;11179;52.106;21.024;2023-07-22T13:26:57;5.30;;;2.47;;
22030;SDS011;11179;52.106;21.024;2023-07-22T13:29:23;6.07;;;2.40;;
22030;SDS011;11179;52.106;21.024;2023-07-22T13:31:48;6.00;;;2.10;;
22030;SDS011;11179;52.106;21.024;2023-07-22T13:34:13;4.70;;;2.07;;
22030;SDS011;11179;52.106;21.024;2023-07-22T13:36:40;5.83;;;2.20;;
22030;SDS011;11179;52.106;21.024;2023-07-22T13:39:05;6.87;;;2.10;;
22030;SDS011;11179;52.106;21.024;2023-07-22T13:41:30;7.33;;;2.43;;
22030;SDS011;11179;52.106;21.024;2023-07-22T13:43:56;5.87;;;2.40;;
22030;SDS011;11179;52.106;21.024;2023-07-22T13:46:21;9.70;;;2.13;;
22030;SDS011;11179;52.106;21.024;2023-07-22T13:48:46;5.83;;;2.70;;
22030;SDS011;11179;52.106;21.024;2023-07-22T13:51:11;5.50;;;2.43;;
22030;SDS011;11179;52.106;21.024;2023-07-22T13:53:37;10.83;;;2.40;;
22030;SDS011;11179;52.106;21.024;2023-07-22T13:56:02;5.80;;;2.40;;
22030;SDS011;11179;52.106;21.024;2023-07-22T13:58:28;5.73;;;2.60;;
22030;SDS011;11179;52.106;21.024;2023-07-22T14:00:53;9.63;;;2.20;;
22030;SDS011;11179;52.106;21.024;2023-07-22T14:03:18;4.40;;;2.00;;
22030;SDS011;11179;52.106;21.024;2023-07-22T14:05:44;6.63;;;2.30;;
22030;SDS011;11179;52.106;21.024;2023-07-22T14:08:09;4.87;;;2.30;;
22030;SDS011;11179;52.106;21.024;2023-07-22T14:10:35;5.47;;;2.10;;
22030;SDS011;11179;52.106;21.024;2023-07-22T14:13:00;5.87;;;2.40;;
22030;SDS011;11179;52.106;21.024;2023-07-22T14:15:25;6.20;;;2.60;;
22030;SDS011;11179;52.106;21.024;2023-07-22T14:17:51;5.67;;;2.40;;
22030;SDS011;11179;52.106;21.024;2023-07-22T14:20:16;6.80;;;2.53;;
22030;SDS011;11179;52.106;21.024;2023-07-22T14:22:41;6.20;;;2.63;;
22030;SDS011;11179;52.106;21.024;2023-07-22T14:25:07;8.07;;;2.80;;
22030;SDS011;11179;52.106;21.024;2023-07-22T14:27:33;6.73;;;2.30;;
22030;SDS011;11179;52.106;21.024;2023-07-22T14:29:59;9.30;;;3.50;;
22030;SDS011;11179;52.106;21.024;2023-07-22T14:32:25;9.03;;;2.57;;
22030;SDS011;11179;52.106;21.024;2023-07-22T14:34:50;5.27;;;2.37;;
22030;SDS011;11179;52.106;21.024;2023-07-22T14:37:16;9.23;;;2.50;;
22030;SDS011;11179;52.106;21.024;2023-07-22T14:39:42;5.60;;;2.70;;
22030;SDS011;11179;52.106;21.024;2023-07-22T14:42:07;6.10;;;2.67;;
22030;SDS011;11179;52.106;21.024;2023-07-22T14:44:32;8.90;;;2.60;;
22030;SDS011;11179;52.106;21.024;2023-07-22T14:46:58;8.47;;;2.73;;